createdAt,value
2023-05-18T00:01:17.089Z,12.27
2023-05-18T00:03:43.881Z,12.28
2023-05-18T00:06:10.733Z,12.42
2023-05-18T00:08:37.768Z,12.35
2023-05-18T00:11:04.766Z,12.16
2023-05-18T00:13:31.513Z,12.29
2023-05-18T00:15:58.153Z,12.31
2023-05-18T00:18:26.656Z,12.21
2023-05-18T00:20:59.005Z,12.10
2023-05-18T00:23:26.820Z,12.36
2023-05-18T00:25:53.332Z,12.62
2023-05-18T00:28:19.817Z,12.30
2023-05-18T00:30:46.329Z,12.30
2023-05-18T00:33:12.874Z,12.36
2023-05-18T00:35:39.454Z,12.23
2023-05-18T00:38:05.998Z,12.12
2023-05-18T00:40:32.495Z,12.30
2023-05-18T00:43:00.624Z,12.34
2023-05-18T00:45:27.302Z,12.45
2023-05-18T00:47:53.976Z,12.40
2023-05-18T00:50:20.582Z,12.31
2023-05-18T00:52:47.306Z,12.34
2023-05-18T00:55:14.492Z,12.38
2023-05-18T00:57:44.617Z,12.37
2023-05-18T01:00:14.875Z,12.32
2023-05-18T01:02:43.024Z,12.32
2023-05-18T01:05:11.080Z,12.43
2023-05-18T01:07:42.643Z,12.41
2023-05-18T01:10:12.635Z,12.43
2023-05-18T01:12:48.387Z,12.42
2023-05-18T01:15:16.657Z,12.41
2023-05-18T01:17:43.169Z,12.32
2023-05-18T01:20:11.767Z,12.30
2023-05-18T01:22:47.450Z,12.38
2023-05-18T01:25:29.816Z,12.41
2023-05-18T01:27:59.928Z,12.45
2023-05-18T01:30:26.603Z,12.26
2023-05-18T01:32:53.168Z,12.24
2023-05-18T01:35:19.694Z,12.18
2023-05-18T01:37:46.473Z,12.36
2023-05-18T01:40:13.297Z,12.37
2023-05-18T01:42:44.638Z,12.02
2023-05-18T01:45:16.426Z,12.16
2023-05-18T01:47:46.184Z,12.03
2023-05-18T01:50:21.042Z,12.16
2023-05-18T01:52:53.639Z,12.37
2023-05-18T01:55:20.916Z,12.32
2023-05-18T01:57:48.745Z,12.31
2023-05-18T02:00:16.697Z,12.32
2023-05-18T02:02:43.603Z,12.28
2023-05-18T02:05:13.945Z,12.27
2023-05-18T02:07:40.842Z,12.11
2023-05-18T02:10:08.719Z,12.14
2023-05-18T02:12:35.330Z,12.22
2023-05-18T02:15:05.521Z,12.21
2023-05-18T02:17:39.004Z,12.16
2023-05-18T02:20:10.130Z,12.17
2023-05-18T02:22:36.825Z,11.98
2023-05-18T02:25:05.037Z,11.97
2023-05-18T02:27:32.358Z,12.07
2023-05-18T02:29:59.283Z,12.09
2023-05-18T02:32:25.835Z,12.12
2023-05-18T02:34:53.226Z,12.15
2023-05-18T02:37:22.988Z,12.11
2023-05-18T02:39:49.978Z,12.27
2023-05-18T02:42:16.585Z,12.23
2023-05-18T02:44:43.756Z,12.40
2023-05-18T02:47:13.777Z,12.30
2023-05-18T02:49:40.462Z,12.04
2023-05-18T02:52:07.088Z,12.20
2023-05-18T02:54:33.688Z,12.11
2023-05-18T02:57:01.423Z,12.07
2023-05-18T02:59:38.747Z,12.10
2023-05-18T03:02:05.736Z,12.15
2023-05-18T03:04:32.718Z,12.11
2023-05-18T03:07:02.715Z,12.17
2023-05-18T03:09:29.656Z,12.07
2023-05-18T03:11:56.913Z,11.98
2023-05-18T03:14:23.837Z,12.10
2023-05-18T03:16:54.285Z,12.08
2023-05-18T03:19:23.211Z,12.03
2023-05-18T03:21:50.189Z,12.07
2023-05-18T03:24:17.210Z,12.02
2023-05-18T03:26:47.546Z,11.98
2023-05-18T03:29:14.082Z,11.94
2023-05-18T03:31:41.582Z,11.85
2023-05-18T03:34:09.799Z,11.93
2023-05-18T03:36:38.333Z,11.95
2023-05-18T03:39:06.363Z,12.02
2023-05-18T03:41:33.027Z,11.95
2023-05-18T03:43:59.546Z,12.03
2023-05-18T03:46:26.736Z,12.00
2023-05-18T03:48:56.126Z,11.94
2023-05-18T03:51:29.834Z,12.11
2023-05-18T03:53:56.928Z,12.00
2023-05-18T03:56:23.436Z,12.00
2023-05-18T03:58:51.470Z,12.07
2023-05-18T04:01:19.065Z,12.16
2023-05-18T04:03:45.802Z,11.90
2023-05-18T04:06:12.588Z,12.10
2023-05-18T04:08:40.445Z,12.11
2023-05-18T04:11:07.150Z,12.22
2023-05-18T04:13:33.672Z,12.22
2023-05-18T04:16:00.304Z,12.22
2023-05-18T04:18:30.095Z,12.24
2023-05-18T04:20:56.711Z,12.32
2023-05-18T04:23:23.981Z,12.45
2023-05-18T04:25:50.798Z,12.28
2023-05-18T04:28:17.770Z,12.39
2023-05-18T04:30:44.283Z,12.40
2023-05-18T04:33:10.894Z,12.55
2023-05-18T04:35:37.566Z,12.58
2023-05-18T04:38:05.324Z,12.73
2023-05-18T04:40:33.977Z,12.67
2023-05-18T04:43:01.107Z,12.71
2023-05-18T04:45:30.576Z,12.79
2023-05-18T04:47:58.596Z,12.83
2023-05-18T04:50:25.224Z,12.95
2023-05-18T04:52:52.242Z,12.57
2023-05-18T04:55:28.318Z,12.72
2023-05-18T04:57:57.979Z,13.01
2023-05-18T05:00:25.914Z,13.11
2023-05-18T05:02:52.818Z,12.83
2023-05-18T05:05:20.645Z,13.21
2023-05-18T05:07:47.228Z,13.00
2023-05-18T05:10:14.117Z,13.22
2023-05-18T05:12:41.312Z,13.51
2023-05-18T05:15:08.413Z,13.56
2023-05-18T05:17:35.212Z,13.65
2023-05-18T05:20:01.832Z,13.90
2023-05-18T05:22:28.417Z,14.16
2023-05-18T05:24:55.181Z,14.06
2023-05-18T05:27:22.746Z,14.18
2023-05-18T05:29:50.608Z,14.22
2023-05-18T05:32:17.156Z,13.99
2023-05-18T05:34:46.832Z,14.01
2023-05-18T05:37:14.214Z,14.14
2023-05-18T05:39:41.376Z,14.32
2023-05-18T05:42:08.722Z,14.44
2023-05-18T05:44:35.550Z,14.55
2023-05-18T05:47:02.810Z,14.54
2023-05-18T05:49:32.101Z,14.65
2023-05-18T05:51:59.229Z,14.60
2023-05-18T05:54:25.690Z,14.80
2023-05-18T05:56:52.285Z,14.93
2023-05-18T05:59:19.250Z,15.02
2023-05-18T06:01:45.748Z,15.06
2023-05-18T06:04:12.865Z,15.17
2023-05-18T06:06:39.829Z,15.35
2023-05-18T06:09:07.204Z,15.53
2023-05-18T06:11:34.095Z,15.94
2023-05-18T06:14:01.061Z,16.03
2023-05-18T06:16:27.705Z,16.18
2023-05-18T06:18:54.345Z,16.57
2023-05-18T06:21:20.945Z,16.45
2023-05-18T06:23:47.848Z,17.14
2023-05-18T06:26:33.484Z,17.32
2023-05-18T06:29:15.954Z,17.90
2023-05-18T06:32:00.940Z,17.93
2023-05-18T06:34:39.710Z,17.57
2023-05-18T06:37:08.863Z,17.27
2023-05-18T06:39:35.521Z,17.04
2023-05-18T06:42:02.140Z,17.01
2023-05-18T06:44:33.255Z,16.66
2023-05-18T06:47:09.740Z,16.82
2023-05-18T06:49:37.029Z,16.77
2023-05-18T06:52:05.772Z,16.69
2023-05-18T06:54:32.396Z,17.08
2023-05-18T06:56:59.729Z,16.85
2023-05-18T06:59:26.327Z,17.05
2023-05-18T07:01:53.507Z,17.19
2023-05-18T07:04:21.161Z,17.37
2023-05-18T07:06:48.478Z,17.33
2023-05-18T07:09:15.024Z,17.34
2023-05-18T07:11:41.523Z,17.48
2023-05-18T07:14:08.089Z,16.97
2023-05-18T07:16:35.395Z,17.19
2023-05-18T07:19:02.235Z,16.83
2023-05-18T07:21:28.752Z,17.16
2023-05-18T07:23:55.495Z,17.11
2023-05-18T07:26:22.672Z,17.29
2023-05-18T07:28:49.840Z,17.73
2023-05-18T07:31:16.765Z,17.19
2023-05-18T07:33:44.171Z,17.90
2023-05-18T07:36:10.881Z,18.27
2023-05-18T07:38:37.461Z,18.58
2023-05-18T07:41:04.000Z,19.08
2023-05-18T07:43:30.899Z,19.28
2023-05-18T07:45:57.479Z,19.52
2023-05-18T07:48:24.052Z,19.74
2023-05-18T07:50:50.561Z,20.34
2023-05-18T07:53:17.115Z,20.44
2023-05-18T07:55:43.655Z,20.51
2023-05-18T07:58:10.560Z,20.96
2023-05-18T08:00:37.482Z,20.05
2023-05-18T08:03:04.499Z,20.14
2023-05-18T08:05:31.373Z,20.22
2023-05-18T08:07:58.060Z,20.07
2023-05-18T08:10:24.745Z,19.99
2023-05-18T08:12:51.859Z,19.85
2023-05-18T08:15:18.408Z,19.68
2023-05-18T08:17:45.004Z,19.83
2023-05-18T08:20:11.814Z,19.07
2023-05-18T08:22:38.364Z,17.89
2023-05-18T08:25:05.103Z,19.06
2023-05-18T08:27:31.778Z,19.13
2023-05-18T08:29:58.324Z,19.30
2023-05-18T08:32:25.226Z,19.15
2023-05-18T08:34:51.846Z,18.56
2023-05-18T08:37:18.416Z,18.30
2023-05-18T08:39:46.190Z,19.06
2023-05-18T08:42:19.065Z,18.25
2023-05-18T08:45:04.371Z,19.17
2023-05-18T08:47:31.442Z,19.51
2023-05-18T08:50:01.974Z,19.74
2023-05-18T08:52:33.148Z,19.52
2023-05-18T08:55:00.951Z,19.73
2023-05-18T08:57:29.562Z,19.81
2023-05-18T08:59:56.869Z,19.65
2023-05-18T09:02:24.313Z,19.80
2023-05-18T09:04:51.042Z,18.61
2023-05-18T09:07:18.032Z,19.09
2023-05-18T09:09:45.560Z,19.56
2023-05-18T09:12:12.757Z,18.63
2023-05-18T09:14:41.793Z,19.10
2023-05-18T09:17:08.388Z,19.31
2023-05-18T09:19:35.220Z,19.81
2023-05-18T09:22:01.994Z,20.05
2023-05-18T09:24:28.550Z,19.78
2023-05-18T09:26:55.767Z,20.31
2023-05-18T09:29:24.112Z,20.83
2023-05-18T09:31:50.776Z,21.29
2023-05-18T09:34:19.302Z,20.85
2023-05-18T09:36:57.683Z,20.00
2023-05-18T09:39:24.273Z,20.72
2023-05-18T09:41:55.508Z,20.59
2023-05-18T09:44:28.794Z,21.29
2023-05-18T09:46:55.908Z,22.27
2023-05-18T09:49:22.982Z,21.24
2023-05-18T09:51:49.562Z,20.92
2023-05-18T09:54:16.092Z,20.34
2023-05-18T09:56:48.183Z,21.14
2023-05-18T09:59:22.814Z,21.53
2023-05-18T10:02:02.531Z,22.69
2023-05-18T10:04:37.191Z,22.86
2023-05-18T10:07:09.071Z,22.20
2023-05-18T10:09:35.764Z,22.60
2023-05-18T10:12:02.557Z,22.63
2023-05-18T10:14:36.348Z,22.14
2023-05-18T10:17:15.058Z,19.99
2023-05-18T10:19:42.939Z,20.86
2023-05-18T10:22:09.892Z,22.03
2023-05-18T10:24:42.330Z,22.66
2023-05-18T10:27:09.987Z,21.05
2023-05-18T10:29:37.504Z,21.56
2023-05-18T10:32:07.552Z,22.48
2023-05-18T10:34:34.834Z,21.33
2023-05-18T10:37:05.413Z,22.11
2023-05-18T10:39:33.665Z,23.37
2023-05-18T10:42:00.587Z,24.50
2023-05-18T10:44:27.240Z,24.70
2023-05-18T10:46:54.641Z,24.09
2023-05-18T10:49:25.897Z,22.62
2023-05-18T10:51:55.925Z,24.02
2023-05-18T10:54:25.454Z,23.07
2023-05-18T10:56:53.756Z,22.45
2023-05-18T10:59:20.813Z,22.44
2023-05-18T11:01:49.184Z,22.86
2023-05-18T11:04:15.759Z,21.67
2023-05-18T11:06:42.694Z,20.78
2023-05-18T11:09:21.672Z,21.58
2023-05-18T11:11:52.996Z,22.47
2023-05-18T11:14:27.454Z,21.88
2023-05-18T11:16:54.370Z,21.68
2023-05-18T11:19:25.062Z,22.12
2023-05-18T11:21:52.641Z,23.30
2023-05-18T11:24:19.612Z,23.71
2023-05-18T11:26:47.557Z,22.86
2023-05-18T11:29:17.414Z,23.98
2023-05-18T11:31:53.861Z,23.31
2023-05-18T11:34:39.828Z,21.90
2023-05-18T11:37:09.937Z,22.32
2023-05-18T11:39:42.059Z,22.46
2023-05-18T11:42:18.586Z,23.18
2023-05-18T11:44:51.449Z,23.33
2023-05-18T11:47:18.451Z,23.69
2023-05-18T11:49:48.327Z,22.90
2023-05-18T11:52:17.809Z,23.56
2023-05-18T11:54:50.513Z,23.07
2023-05-18T11:57:18.658Z,22.56
2023-05-18T11:59:48.861Z,22.34
2023-05-18T12:02:24.055Z,22.64
2023-05-18T12:04:54.882Z,21.41
2023-05-18T12:07:21.835Z,21.39
2023-05-18T12:09:48.711Z,21.50
2023-05-18T12:12:17.387Z,21.05
2023-05-18T12:14:45.306Z,21.32
2023-05-18T12:17:12.123Z,21.60
2023-05-18T12:19:43.012Z,21.48
2023-05-18T12:22:09.917Z,21.12
2023-05-18T12:24:37.022Z,20.48
2023-05-18T12:27:07.324Z,20.49
2023-05-18T12:29:34.921Z,20.26
2023-05-18T12:32:05.067Z,20.68
2023-05-18T12:34:31.732Z,20.21
2023-05-18T12:36:58.354Z,19.92
2023-05-18T12:39:26.515Z,20.07
2023-05-18T12:42:07.965Z,20.06
2023-05-18T12:44:34.651Z,20.71
2023-05-18T12:47:01.659Z,20.73
2023-05-18T12:49:28.233Z,20.73
2023-05-18T12:51:55.657Z,20.59
2023-05-18T12:54:31.549Z,20.53
2023-05-18T12:57:02.357Z,20.75
2023-05-18T12:59:29.163Z,20.71
2023-05-18T13:01:56.680Z,20.93
2023-05-18T13:04:23.376Z,20.88
2023-05-18T13:06:50.108Z,21.31
2023-05-18T13:09:16.791Z,20.88
2023-05-18T13:11:47.385Z,20.58
2023-05-18T13:14:13.949Z,20.67
2023-05-18T13:16:44.986Z,20.34
2023-05-18T13:19:16.436Z,20.12
2023-05-18T13:21:43.118Z,19.93
2023-05-18T13:24:09.722Z,19.82
2023-05-18T13:26:36.204Z,19.68
2023-05-18T13:29:02.878Z,19.88
2023-05-18T13:31:29.704Z,19.84
2023-05-18T13:33:56.627Z,19.45
2023-05-18T13:36:23.177Z,19.84
2023-05-18T13:38:49.754Z,19.78
2023-05-18T13:41:16.300Z,20.12
2023-05-18T13:43:42.966Z,20.27
2023-05-18T13:46:09.809Z,20.27
2023-05-18T13:48:36.362Z,20.11
2023-05-18T13:51:02.940Z,19.41
2023-05-18T13:53:29.473Z,19.26
2023-05-18T13:55:56.062Z,19.22
2023-05-18T13:58:23.808Z,19.19
2023-05-18T14:00:50.402Z,19.37
2023-05-18T14:03:20.091Z,19.51
2023-05-18T14:05:46.733Z,18.91
2023-05-18T14:08:13.252Z,18.63
2023-05-18T14:10:39.806Z,18.80
2023-05-18T14:13:08.453Z,18.26
2023-05-18T14:15:34.936Z,18.29
2023-05-18T14:18:01.570Z,18.50
2023-05-18T14:20:29.337Z,17.86
2023-05-18T14:22:56.248Z,18.32
2023-05-18T14:25:22.780Z,18.60
2023-05-18T14:27:49.304Z,19.19
2023-05-18T14:30:15.859Z,18.84
2023-05-18T14:32:42.393Z,18.88
2023-05-18T14:35:09.109Z,19.49
2023-05-18T14:37:35.669Z,19.18
2023-05-18T14:40:02.262Z,19.56
2023-05-18T14:42:28.838Z,19.80
2023-05-18T14:44:55.497Z,19.88
2023-05-18T14:47:22.474Z,20.05
2023-05-18T14:49:49.131Z,19.83
2023-05-18T14:52:15.777Z,19.79
2023-05-18T14:54:42.610Z,19.67
2023-05-18T14:57:09.119Z,19.43
2023-05-18T14:59:35.643Z,19.03
2023-05-18T15:02:02.278Z,19.26
2023-05-18T15:04:28.836Z,19.44
2023-05-18T15:06:55.498Z,18.73
2023-05-18T15:09:22.392Z,19.26
2023-05-18T15:11:50.675Z,19.15
2023-05-18T15:14:17.236Z,19.51
2023-05-18T15:16:43.892Z,19.28
2023-05-18T15:19:10.552Z,19.17
2023-05-18T15:21:37.205Z,19.35
2023-05-18T15:24:03.824Z,19.03
2023-05-18T15:26:30.492Z,19.12
2023-05-18T15:28:57.030Z,18.96
2023-05-18T15:31:23.630Z,19.13
2023-05-18T15:33:50.528Z,19.21
2023-05-18T15:36:17.263Z,19.20
2023-05-18T15:38:43.758Z,19.42
2023-05-18T15:41:10.644Z,19.23
2023-05-18T15:43:37.554Z,19.35
2023-05-18T15:46:04.342Z,19.42
2023-05-18T15:48:30.931Z,18.89
2023-05-18T15:50:57.522Z,19.25
2023-05-18T15:53:24.114Z,18.93
2023-05-18T15:55:56.551Z,18.81
2023-05-18T15:58:25.113Z,18.69
2023-05-18T16:00:51.704Z,18.81
2023-05-18T16:03:19.143Z,18.61
2023-05-18T16:05:45.832Z,19.13
2023-05-18T16:08:12.370Z,18.91
2023-05-18T16:10:38.948Z,18.74
2023-05-18T16:13:06.107Z,18.90
2023-05-18T16:15:33.927Z,18.58
2023-05-18T16:18:00.639Z,18.52
2023-05-18T16:20:27.270Z,18.46
2023-05-18T16:22:53.867Z,18.38
2023-05-18T16:25:20.522Z,18.78
2023-05-18T16:27:47.008Z,18.40
2023-05-18T16:30:13.617Z,18.19
2023-05-18T16:32:40.139Z,18.01
2023-05-18T16:35:06.772Z,18.25
2023-05-18T16:37:33.348Z,18.14
2023-05-18T16:39:59.920Z,18.49
2023-05-18T16:42:26.465Z,18.07
2023-05-18T16:44:52.957Z,18.54
2023-05-18T16:47:19.436Z,18.19
2023-05-18T16:49:46.053Z,18.20
2023-05-18T16:52:12.601Z,18.36
2023-05-18T16:54:39.078Z,18.24
2023-05-18T16:57:06.295Z,17.72
2023-05-18T16:59:34.396Z,17.26
2023-05-18T17:02:01.465Z,17.38
2023-05-18T17:04:28.170Z,17.43
2023-05-18T17:06:54.806Z,17.39
2023-05-18T17:09:21.347Z,17.23
2023-05-18T17:11:48.274Z,17.16
2023-05-18T17:14:14.824Z,17.19
2023-05-18T17:16:41.304Z,17.36
2023-05-18T17:19:08.070Z,17.14
2023-05-18T17:21:34.644Z,16.94
2023-05-18T17:24:01.172Z,16.68
2023-05-18T17:26:30.637Z,16.61
2023-05-18T17:28:57.491Z,16.77
2023-05-18T17:31:24.349Z,16.60
2023-05-18T17:33:51.022Z,16.53
2023-05-18T17:36:18.256Z,16.34
2023-05-18T17:38:45.053Z,16.40
2023-05-18T17:41:11.656Z,16.13
2023-05-18T17:43:38.146Z,15.93
2023-05-18T17:46:04.811Z,16.08
2023-05-18T17:48:33.104Z,16.18
2023-05-18T17:51:00.323Z,15.85
2023-05-18T17:53:26.864Z,15.64
2023-05-18T17:55:53.356Z,15.92
2023-05-18T17:58:19.872Z,15.86
2023-05-18T18:00:46.375Z,15.64
2023-05-18T18:03:14.066Z,15.84
2023-05-18T18:05:40.658Z,15.70
2023-05-18T18:08:07.254Z,15.60
2023-05-18T18:10:34.909Z,15.48
2023-05-18T18:13:01.530Z,15.57
2023-05-18T18:15:29.124Z,15.52
2023-05-18T18:17:56.548Z,15.47
2023-05-18T18:20:23.277Z,15.22
2023-05-18T18:22:49.982Z,15.32
2023-05-18T18:25:16.660Z,15.10
2023-05-18T18:27:43.657Z,15.08
2023-05-18T18:30:10.756Z,15.07
2023-05-18T18:32:37.339Z,15.12
2023-05-18T18:35:04.358Z,15.20
2023-05-18T18:37:30.914Z,15.41
2023-05-18T18:39:57.450Z,15.19
2023-05-18T18:42:23.998Z,14.97
2023-05-18T18:44:52.956Z,14.89
2023-05-18T18:47:19.591Z,14.88
2023-05-18T18:49:46.075Z,14.90
2023-05-18T18:52:13.932Z,15.03
2023-05-18T18:54:40.983Z,15.16
2023-05-18T18:57:07.594Z,15.10
2023-05-18T18:59:35.431Z,14.97
2023-05-18T19:02:02.062Z,14.90
2023-05-18T19:04:28.845Z,14.89
2023-05-18T19:06:55.992Z,15.03
2023-05-18T19:09:22.904Z,14.69
2023-05-18T19:11:49.454Z,14.97
2023-05-18T19:14:16.504Z,14.66
2023-05-18T19:16:43.197Z,14.54
2023-05-18T19:19:09.986Z,14.42
2023-05-18T19:21:36.667Z,14.60
2023-05-18T19:24:04.267Z,14.98
2023-05-18T19:26:31.849Z,14.73
2023-05-18T19:28:59.001Z,14.54
2023-05-18T19:31:25.923Z,14.56
2023-05-18T19:33:52.780Z,14.67
2023-05-18T19:36:19.298Z,14.58
2023-05-18T19:38:46.785Z,14.34
2023-05-18T19:41:13.424Z,13.80
2023-05-18T19:43:39.873Z,14.18
2023-05-18T19:46:06.522Z,14.43
2023-05-18T19:48:33.343Z,14.33
2023-05-18T19:50:59.887Z,14.28
2023-05-18T19:53:26.388Z,14.06
2023-05-18T19:55:53.068Z,13.51
2023-05-18T19:58:19.522Z,13.57
2023-05-18T20:00:46.056Z,13.78
2023-05-18T20:03:14.416Z,13.58
2023-05-18T20:05:43.623Z,13.48
2023-05-18T20:08:10.173Z,13.22
2023-05-18T20:10:36.692Z,13.24
2023-05-18T20:13:03.208Z,13.07
2023-05-18T20:15:32.295Z,13.12
2023-05-18T20:17:58.838Z,13.05
2023-05-18T20:20:30.584Z,13.17
2023-05-18T20:22:57.473Z,13.27
2023-05-18T20:25:24.907Z,13.54
2023-05-18T20:27:52.534Z,13.69
2023-05-18T20:30:19.053Z,13.80
2023-05-18T20:32:45.605Z,13.90
2023-05-18T20:35:13.109Z,13.97
2023-05-18T20:37:41.451Z,13.86
2023-05-18T20:40:09.542Z,13.93
2023-05-18T20:42:40.466Z,13.82
2023-05-18T20:45:07.673Z,13.83
2023-05-18T20:47:34.474Z,14.24
2023-05-18T20:50:02.672Z,13.70
2023-05-18T20:52:29.386Z,13.81
2023-05-18T20:54:55.909Z,14.01
2023-05-18T20:57:23.016Z,14.06
2023-05-18T20:59:49.538Z,13.68
2023-05-18T21:02:16.975Z,13.47
2023-05-18T21:04:43.516Z,13.65
2023-05-18T21:07:10.290Z,13.70
2023-05-18T21:09:36.829Z,13.55
2023-05-18T21:12:03.427Z,13.67
2023-05-18T21:14:29.966Z,13.49
2023-05-18T21:16:56.620Z,13.88
2023-05-18T21:19:23.386Z,13.72
2023-05-18T21:21:49.963Z,13.59
2023-05-18T21:24:16.501Z,13.51
2023-05-18T21:26:43.118Z,13.26
2023-05-18T21:29:09.935Z,13.57
2023-05-18T21:31:36.594Z,13.58
2023-05-18T21:34:03.193Z,13.61
2023-05-18T21:36:33.835Z,13.63
2023-05-18T21:39:01.315Z,13.73
2023-05-18T21:41:28.066Z,13.60
2023-05-18T21:43:54.613Z,13.59
2023-05-18T21:46:21.206Z,13.69
2023-05-18T21:48:48.151Z,13.79
2023-05-18T21:51:14.912Z,13.67
2023-05-18T21:53:41.500Z,13.72
2023-05-18T21:56:08.060Z,13.72
2023-05-18T21:58:34.674Z,13.74
2023-05-18T22:01:01.352Z,13.82
2023-05-18T22:03:27.860Z,13.59
2023-05-18T22:05:54.398Z,13.62
2023-05-18T22:08:21.150Z,13.45
2023-05-18T22:10:47.623Z,13.54
2023-05-18T22:13:14.149Z,13.53
2023-05-18T22:15:40.878Z,13.24
2023-05-18T22:18:07.511Z,13.27
2023-05-18T22:20:34.281Z,13.21
2023-05-18T22:23:00.976Z,13.04
2023-05-18T22:25:27.601Z,12.88
2023-05-18T22:27:54.728Z,12.74
2023-05-18T22:30:23.790Z,13.12
2023-05-18T22:32:50.799Z,13.22
2023-05-18T22:35:17.311Z,12.96
2023-05-18T22:37:43.866Z,12.93
2023-05-18T22:40:10.871Z,13.21
2023-05-18T22:42:37.403Z,13.13
2023-05-18T22:45:04.032Z,13.16
2023-05-18T22:47:30.767Z,13.24
2023-05-18T22:49:57.264Z,13.21
2023-05-18T22:52:23.734Z,12.94
2023-05-18T22:54:50.325Z,12.85
2023-05-18T22:57:16.792Z,12.88
2023-05-18T22:59:43.286Z,13.03
2023-05-18T23:02:10.038Z,13.23
2023-05-18T23:04:36.624Z,13.33
2023-05-18T23:07:04.065Z,13.45
2023-05-18T23:09:30.862Z,13.48
2023-05-18T23:11:59.405Z,13.23
2023-05-18T23:14:26.550Z,13.19
2023-05-18T23:16:53.635Z,12.91
2023-05-18T23:19:20.356Z,13.03
2023-05-18T23:21:46.993Z,13.15
2023-05-18T23:24:14.584Z,13.12
2023-05-18T23:26:41.829Z,12.83
2023-05-18T23:29:08.548Z,12.85
2023-05-18T23:31:35.099Z,12.88
2023-05-18T23:34:01.804Z,12.70
2023-05-18T23:36:30.380Z,12.73
2023-05-18T23:39:00.605Z,12.71
2023-05-18T23:41:28.464Z,12.55
2023-05-18T23:43:55.708Z,12.63
2023-05-18T23:46:22.962Z,12.92
2023-05-18T23:48:50.081Z,12.99
2023-05-18T23:51:17.624Z,13.08
2023-05-18T23:53:45.116Z,13.07
2023-05-18T23:56:14.634Z,13.01
2023-05-18T23:58:41.854Z,12.95
